Sparks, NV (89434)

6:46 PM PDT on October 31, 2014 (GMT -0700)
Sunset Pointe | Change Station
CLOSE
Current Station
Personal Weather Station
Location: Sparks, NV
Elevation: 4739 ft
Nearby Weather Stations

Elev 4739 ft 39.57 °N, 119.71 °W | Updated 2 seconds ago

Partly Cloudy
Partly Cloudy
55.1 °F
Feels Like 55.1 °F
N
6.3
Wind Variable Wind from NNW
Gusts 7.6 mph

Today
High -- | Low -- °F
--% Chance of Precip.
Yesterday
High -- | Low -- °F
Precip. -- in
7:25 AM 5:58 PM
First Quarter, 61% visible
Pressure 29.59 in
Visibility 10.0 miles
Clouds Scattered Clouds 7000 ft
Scattered Clouds 10000 ft
Mostly Cloudy 14000 ft
Dew Point 34 °F
Humidity 45%
Rainfall 0.00 in
Snow Depth Not available.
UV 0 out of 12
Pollen 2.50 out of 12
Air Quality Not available.
Flu Activity Not available.
METAR KRNO 010055Z 01008KT 10SM SCT070 SCT100 BKN140 16/01 A2969 RMK AO2 SLP019 ACSL DSNT SE SH DSNT N T01610006

More Conditions Fewer Conditions

Pressure 29.59 in
Visibility 10.0 miles
Clouds Scattered Clouds 7000 ft
Scattered Clouds 10000 ft
Mostly Cloudy 14000 ft
Dew Point 34 °F
Humidity 45%
Rainfall 0.00 in
Snow Depth Not available.
UV 0 out of 12
Pollen 2.50 out of 12
Air Quality Not available.
Flu Activity Not available.
METAR KRNO 010055Z 01008KT 10SM SCT070 SCT100 BKN140 16/01 A2969 RMK AO2 SLP019 ACSL DSNT SE SH DSNT N T01610006

More Conditions Fewer Conditions

10-Day Weather Forecast

Almanac

Astronomy

Oct. 31, 2014 Rise Set
Actual Time
Civil Twilight
Nautical Twilight
Astronomical Twilight
Moon
Length of Visible Light
Length of Day
Tomorrow will be .
, % of the Moon is Illuminated

Today's Extremes

State Highs State Lows

Community

WunderPhotos

Upload Photos

1,766,810 photos uploaded!

WunderBlogs® & News

Nearby

Air Quality

  Air Quality AQ Index Pollutant
Not available.

Snow Depth

Station Depth Elevation

Earthquake Activity

City Distance Mag. Time & Date
Minimum magnitude displayed is 2.5.

Coastal Water Temperatures

Place Temperature

Nearby Weather Stations